Time;durP1;ratioP1;P1;durP2;ratioP2;P2;SDS_P1;SDS_P2;PMS_P1;PMS_P2;Temp;Humidity;BMP_temperature;BMP_pressure;BME280_temperature;BME280_humidity;BME280_pressure;Samples;Min_cycle;Max_cycle;Signal;HPM_P1;HPM_P2
2023/12/22 06:57:16;;;;;;;7.15;1.80;;;;;;;;;;10549953;27;20350;-89
2023/12/22 07:02:33;;;;;;;6.50;1.63;;;;;;;;;;10543888;28;20411;-89
2023/12/22 07:24:27;;;;;;;3.33;0.90;;;;;;;;;;10594563;28;20028;-86
2023/12/22 07:29:50;;;;;;;5.07;1.67;;;;;;;;;;10604620;28;20045;-86
2023/12/22 08:03:58;;;;;;;4.43;1.48;;;;;;;;;;10490268;28;20041;-87
2023/12/22 08:09:27;;;;;;;7.47;1.70;;;;;;;;;;10441428;28;20065;-86
2023/12/22 08:14:58;;;;;;;4.70;1.80;;;;;;;;;;10452206;28;20048;-84
2023/12/22 08:20:19;;;;;;;6.70;2.20;;;;;;;;;;10472739;28;20021;-85
2023/12/22 08:25:20;;;;;;;5.85;2.42;;;;;;;;;;10452674;28;20033;-82
2023/12/22 08:30:21;;;;;;;5.05;2.25;;;;;;;;;;10466852;28;20063;-80
2023/12/22 08:35:22;;;;;;;7.80;2.50;;;;;;;;;;10573209;28;20086;-80
2023/12/22 08:40:25;;;;;;;7.47;3.17;;;;;;;;;;10556003;28;20024;-79
2023/12/22 08:45:30;;;;;;;7.50;2.40;;;;;;;;;;10553683;28;20055;-78
2023/12/22 08:50:32;;;;;;;9.82;2.90;;;;;;;;;;10572237;28;20053;-78
2023/12/22 08:55:33;;;;;;;8.73;2.80;;;;;;;;;;10578083;28;20539;-80
2023/12/22 09:00:34;;;;;;;9.95;3.65;;;;;;;;;;10568506;28;20140;-78
2023/12/22 09:05:35;;;;;;;10.68;2.88;;;;;;;;;;10570526;28;20135;-79
2023/12/22 09:10:37;;;;;;;11.70;3.25;;;;;;;;;;10569480;28;20446;-79
2023/12/22 09:15:38;;;;;;;10.32;3.05;;;;;;;;;;10567443;28;20035;-77
2023/12/22 09:20:40;;;;;;;9.38;2.47;;;;;;;;;;10568146;28;20035;-78
2023/12/22 09:25:41;;;;;;;8.20;2.53;;;;;;;;;;10551767;28;20036;-79
2023/12/22 09:30:42;;;;;;;11.27;4.25;;;;;;;;;;10568579;28;20040;-78
2023/12/22 09:35:43;;;;;;;9.27;2.55;;;;;;;;;;10569158;28;20062;-80
2023/12/22 09:40:45;;;;;;;11.27;4.07;;;;;;;;;;10575328;28;20024;-79
2023/12/22 09:45:46;;;;;;;;;;;;;;;;;;10578419;28;20040;-78
2023/12/22 09:50:47;;;;;;;6.15;2.20;;;;;;;;;;10562275;28;19908;-77
2023/12/22 09:55:50;;;;;;;5.55;1.77;;;;;;;;;;10577759;28;20040;-77
2023/12/22 10:00:51;;;;;;;6.45;2.35;;;;;;;;;;10571873;28;20058;-78
2023/12/22 10:05:52;;;;;;;8.27;2.70;;;;;;;;;;10573154;28;20031;-78
2023/12/22 10:10:54;;;;;;;;;;;;;;;;;;10574859;28;20032;-79
2023/12/22 10:15:56;;;;;;;8.57;4.53;;;;;;;;;;10556971;28;20018;-79
2023/12/22 10:20:57;;;;;;;5.63;2.20;;;;;;;;;;10556825;28;20437;-78
2023/12/22 10:25:58;;;;;;;5.50;2.20;;;;;;;;;;10570155;28;20068;-79
2023/12/22 10:31:05;;;;;;;7.18;2.55;;;;;;;;;;10552037;28;20032;-79
2023/12/22 10:36:08;;;;;;;4.95;2.20;;;;;;;;;;10567258;28;20036;-79
2023/12/22 10:41:10;;;;;;;6.63;2.63;;;;;;;;;;10569202;28;20130;-80
2023/12/22 10:46:13;;;;;;;6.15;2.20;;;;;;;;;;10573178;28;20415;-80
2023/12/22 10:51:14;;;;;;;5.00;2.15;;;;;;;;;;10568734;28;20039;-81
2023/12/22 10:56:15;;;;;;;;;;;;;;;;;;10567521;28;20039;-79
2023/12/22 11:01:17;;;;;;;4.68;2.25;;;;;;;;;;10550604;28;20294;-78
2023/12/22 11:06:18;;;;;;;7.63;2.10;;;;;;;;;;10556493;28;20115;-77
2023/12/22 11:11:19;;;;;;;;;;;;;;;;;;10575750;28;20048;-78
2023/12/22 11:16:21;;;;;;;5.88;1.88;;;;;;;;;;10552147;28;19908;-78
2023/12/22 11:21:26;;;;;;;4.72;2.00;;;;;;;;;;10566691;28;20123;-77
2023/12/22 11:26:27;;;;;;;3.92;1.48;;;;;;;;;;10575470;28;20096;-78
2023/12/22 11:31:28;;;;;;;4.07;1.85;;;;;;;;;;10550350;28;20119;-78
2023/12/22 11:36:30;;;;;;;5.60;1.35;;;;;;;;;;10548396;28;20107;-79
2023/12/22 11:41:33;;;;;;;4.13;1.50;;;;;;;;;;10581834;28;20052;-79
2023/12/22 11:46:34;;;;;;;4.20;1.50;;;;;;;;;;10585136;28;20104;-77
2023/12/22 11:51:35;;;;;;;6.20;1.70;;;;;;;;;;10572524;28;20514;-78
2023/12/22 11:56:36;;;;;;;4.70;1.58;;;;;;;;;;10570440;28;20484;-80
2023/12/22 12:01:38;;;;;;;4.22;1.90;;;;;;;;;;10572928;28;20095;-79
2023/12/22 12:06:39;;;;;;;2.97;1.50;;;;;;;;;;10573441;28;20552;-80
2023/12/22 12:11:58;;;;;;;5.93;1.75;;;;;;;;;;10573693;28;20055;-80
2023/12/22 12:17:08;;;;;;;3.97;2.15;;;;;;;;;;10577530;28;20094;-80
2023/12/22 12:22:09;;;;;;;2.75;1.48;;;;;;;;;;10574923;28;20126;-79
2023/12/22 12:27:11;;;;;;;;;;;;;;;;;;10575313;28;20040;-79
2023/12/22 12:32:12;;;;;;;;;;;;;;;;;;10558070;28;19908;-78
2023/12/22 12:37:13;;;;;;;2.85;1.17;;;;;;;;;;10555759;28;19911;-79
2023/12/22 12:42:16;;;;;;;3.05;1.17;;;;;;;;;;10574077;28;20036;-79
2023/12/22 12:47:17;;;;;;;2.75;1.20;;;;;;;;;;10557724;28;20032;-80
2023/12/22 12:52:19;;;;;;;2.83;1.20;;;;;;;;;;10570112;28;20043;-80
2023/12/22 12:57:21;;;;;;;4.10;1.35;;;;;;;;;;10569775;28;20074;-80
2023/12/22 13:02:23;;;;;;;3.38;1.08;;;;;;;;;;10570125;28;20036;-79
2023/12/22 13:07:25;;;;;;;2.60;1.00;;;;;;;;;;10582291;22;20563;-82
2023/12/22 13:12:33;;;;;;;4.35;1.30;;;;;;;;;;10554949;28;20471;-82
2023/12/22 13:17:34;;;;;;;3.10;0.80;;;;;;;;;;10553820;28;20119;-81
2023/12/22 13:22:36;;;;;;;3.53;1.42;;;;;;;;;;10566268;28;20224;-80
2023/12/22 13:27:37;;;;;;;;;;;;;;;;;;10570273;28;20036;-81
2023/12/22 13:32:38;;;;;;;3.33;1.08;;;;;;;;;;10571751;28;20024;-81
2023/12/22 13:37:42;;;;;;;2.05;0.90;;;;;;;;;;10572334;28;20043;-81
2023/12/22 13:42:44;;;;;;;2.70;1.20;;;;;;;;;;10570514;28;20556;-81
2023/12/22 13:47:47;;;;;;;3.55;1.10;;;;;;;;;;10564328;28;20043;-81
2023/12/22 13:52:49;;;;;;;2.33;1.20;;;;;;;;;;10556622;28;20046;-80
2023/12/22 13:58:04;;;;;;;4.13;1.55;;;;;;;;;;10555046;28;20028;-83
2023/12/22 14:03:05;;;;;;;3.15;1.02;;;;;;;;;;10560237;28;20040;-82
2023/12/22 14:08:08;;;;;;;5.15;0.90;;;;;;;;;;10555364;28;20131;-81
2023/12/22 14:13:09;;;;;;;4.68;1.30;;;;;;;;;;10554309;28;20036;-81
2023/12/22 14:18:14;;;;;;;5.35;1.67;;;;;;;;;;10559888;28;20154;-81
2023/12/22 14:23:19;;;;;;;4.53;1.33;;;;;;;;;;10571991;28;20071;-81
2023/12/22 14:28:21;;;;;;;2.95;1.10;;;;;;;;;;10562568;28;20032;-81
2023/12/22 14:33:22;;;;;;;;;;;;;;;;;;10556765;28;20033;-81
2023/12/22 14:38:23;;;;;;;3.30;1.05;;;;;;;;;;10551105;28;19972;-81
2023/12/22 14:43:28;;;;;;;2.92;0.80;;;;;;;;;;10556317;28;20039;-81
2023/12/22 14:48:46;;;;;;;2.33;0.85;;;;;;;;;;10549305;28;20523;-82
2023/12/22 14:53:47;;;;;;;5.05;2.38;;;;;;;;;;10549897;28;20032;-82
2023/12/22 14:58:50;;;;;;;4.20;1.00;;;;;;;;;;10549778;28;20052;-81
2023/12/22 15:03:51;;;;;;;3.97;1.30;;;;;;;;;;10547896;28;20032;-81
2023/12/22 15:08:52;;;;;;;;;;;;;;;;;;10548543;28;20062;-81
2023/12/22 15:13:54;;;;;;;3.45;0.90;;;;;;;;;;10550150;28;19912;-81
2023/12/22 15:18:54;;;;;;;2.53;0.90;;;;;;;;;;10558016;28;20024;-81
2023/12/22 15:23:55;;;;;;;3.58;1.20;;;;;;;;;;10559291;28;20035;-81
2023/12/22 15:29:01;;;;;;;2.90;1.23;;;;;;;;;;10556906;28;20104;-81
2023/12/22 15:34:02;;;;;;;3.35;0.90;;;;;;;;;;10558199;28;20109;-81
2023/12/22 15:39:04;;;;;;;3.92;0.73;;;;;;;;;;10556641;28;20039;-81
2023/12/22 15:44:04;;;;;;;;;;;;;;;;;;10561469;28;20096;-81
2023/12/22 15:49:06;;;;;;;2.30;0.90;;;;;;;;;;10561863;28;19908;-83
2023/12/22 15:54:08;;;;;;;2.50;1.23;;;;;;;;;;10557332;28;20043;-80
2023/12/22 15:59:11;;;;;;;2.88;1.00;;;;;;;;;;10562877;28;20119;-82
2023/12/22 16:04:12;;;;;;;2.85;0.90;;;;;;;;;;10551202;28;20034;-80
2023/12/22 16:09:13;;;;;;;;;;;;;;;;;;10553971;28;20036;-81
2023/12/22 16:14:16;;;;;;;;;;;;;;;;;;10557059;28;19912;-81
2023/12/22 16:19:19;;;;;;;4.15;0.75;;;;;;;;;;10556681;28;19929;-81
2023/12/22 16:24:20;;;;;;;2.95;1.25;;;;;;;;;;10556401;28;20036;-81
2023/12/22 16:29:23;;;;;;;8.13;4.13;;;;;;;;;;10552460;28;20028;-82
2023/12/22 16:34:28;;;;;;;3.75;1.15;;;;;;;;;;10561476;28;20039;-81
2023/12/22 16:39:29;;;;;;;3.60;1.30;;;;;;;;;;10564324;28;20049;-80
2023/12/22 16:44:33;;;;;;;4.18;1.60;;;;;;;;;;10553981;28;20097;-82
2023/12/22 16:49:36;;;;;;;3.25;1.13;;;;;;;;;;10551316;28;20097;-81
2023/12/22 16:55:00;;;;;;;5.93;1.48;;;;;;;;;;10550788;28;20452;-83
2023/12/22 17:00:03;;;;;;;3.67;1.40;;;;;;;;;;10552212;28;20028;-81
2023/12/22 17:05:17;;;;;;;4.45;1.15;;;;;;;;;;10550344;28;20566;-82
2023/12/22 17:10:19;;;;;;;4.85;1.45;;;;;;;;;;10547958;28;20131;-80
2023/12/22 17:15:21;;;;;;;6.13;1.58;;;;;;;;;;10532362;28;20151;-80
2023/12/22 17:20:22;;;;;;;4.75;1.27;;;;;;;;;;10554599;28;20036;-84
2023/12/22 17:25:23;;;;;;;4.72;1.60;;;;;;;;;;10554531;28;20092;-85
2023/12/22 17:30:25;;;;;;;3.47;0.93;;;;;;;;;;10552093;28;20484;-85
2023/12/22 17:36:02;;;;;;;3.97;0.88;;;;;;;;;;10550786;28;20044;-88
2023/12/22 17:47:39;;;;;;;2.15;0.50;;;;;;;;;;10550219;28;20388;-88
2023/12/22 19:44:40;;;;;;;;;;;;;;;;;;10595482;28;20042;-85
2023/12/22 19:49:51;;;;;;;3.38;0.90;;;;;;;;;;10577819;28;19911;-85
2023/12/22 19:55:49;;;;;;;3.92;1.02;;;;;;;;;;10502502;28;20042;-84
2023/12/22 20:06:52;;;;;;;2.30;0.75;;;;;;;;;;10397417;28;20059;-85
